Alanreed, Texas
Current Conditions -  °F | °C
As of 6:35 PM on Saturday 25 Oct 2014 (Local Time) from KPPA Reporting Station
Clear Clear  
Wind Chill: 26°   Ceiling: Unl
Heat Index: 26°   Visibility: 10mi
Dew Point:   Wind: 9mph
Humidity: 31%   Direction: 200°SSW
Pressure: 30.07"   Gusts: NA
Location:  35.21°N, 100.74°W
Report Text: KPPA 252335Z AUTO 20008KT 10SM CLR 26/07 A3007 RMK AO2 T02600074 PNO
Loading
Personal Weather Stations






























Interactive Weather Map
Tropical Storm Tracking
New forecast layout! Learn more

10-Day Weather Forecast

Advertisements
Track Severe Weather on mobile